Time;durP1;ratioP1;P1;durP2;ratioP2;P2;SDS_P1;SDS_P2;PMS_P1;PMS_P2;Temp;Humidity;BMP_temperature;BMP_pressure;BME280_temperature;BME280_humidity;BME280_pressure;Samples;Min_cycle;Max_cycle;Signal;HPM_P1;HPM_P2
2021/01/25 00:01:40;;;;;;;5.17;2.90;;;2.10;99.90;;;;;;5023960;28;20268;-76
2021/01/25 00:04:07;;;;;;;5.13;3.40;;;2.20;99.90;;;;;;5024308;28;20252;-78
2021/01/25 00:06:33;;;;;;;4.67;3.70;;;2.10;99.90;;;;;;5034750;28;20250;-73
2021/01/25 00:09:00;;;;;;;5.27;3.67;;;2.10;99.90;;;;;;5023480;28;20198;-75
2021/01/25 00:11:26;;;;;;;4.13;3.43;;;2.10;99.90;;;;;;5041786;28;20252;-76
2021/01/25 00:13:52;;;;;;;8.03;4.57;;;2.10;99.90;;;;;;5040668;28;20211;-75
2021/01/25 00:16:19;;;;;;;4.73;3.80;;;2.00;99.90;;;;;;5038004;28;20273;-75
2021/01/25 00:18:46;;;;;;;8.13;4.07;;;2.10;99.90;;;;;;5025376;28;20235;-77
2021/01/25 00:21:12;;;;;;;5.27;3.70;;;2.10;99.90;;;;;;5008865;28;20199;-75
2021/01/25 00:23:39;;;;;;;7.00;4.23;;;2.10;99.90;;;;;;5036773;28;20283;-78
2021/01/25 00:26:05;;;;;;;7.03;5.17;;;2.10;99.90;;;;;;5020411;28;20234;-76
2021/01/25 00:28:31;;;;;;;6.20;4.50;;;2.10;99.90;;;;;;5045432;28;20263;-74
2021/01/25 00:30:58;;;;;;;8.60;4.77;;;2.00;99.90;;;;;;5030550;28;20214;-75
2021/01/25 00:33:25;;;;;;;7.13;5.10;;;2.10;99.90;;;;;;5038889;28;20200;-75
2021/01/25 00:35:53;;;;;;;14.60;5.57;;;2.10;99.90;;;;;;5040447;28;20699;-76
2021/01/25 00:38:19;;;;;;;6.37;4.90;;;2.10;99.90;;;;;;5022219;28;20375;-76
2021/01/25 00:40:46;;;;;;;6.57;4.93;;;2.10;99.90;;;;;;5017005;28;20227;-75
2021/01/25 00:43:13;;;;;;;6.63;4.73;;;2.00;99.90;;;;;;5041752;28;20656;-75
2021/01/25 00:45:39;;;;;;;6.40;4.63;;;1.90;99.90;;;;;;5057110;28;20566;-75
2021/01/25 00:48:06;;;;;;;8.23;4.97;;;2.00;99.90;;;;;;5038009;28;20223;-75
2021/01/25 00:50:33;;;;;;;8.30;5.53;;;2.10;99.90;;;;;;5035771;28;20201;-75
2021/01/25 00:52:59;;;;;;;7.73;4.70;;;2.10;99.90;;;;;;5036730;28;20266;-76
2021/01/25 00:55:25;;;;;;;7.83;4.20;;;2.00;99.90;;;;;;5015611;28;20283;-77
2021/01/25 00:57:51;;;;;;;6.70;4.87;;;2.00;99.90;;;;;;5028499;28;20620;-77
2021/01/25 01:00:18;;;;;;;6.17;4.00;;;2.10;99.90;;;;;;5042797;28;20226;-77
2021/01/25 01:02:44;;;;;;;4.37;3.83;;;2.10;99.90;;;;;;5024922;28;20293;-77
2021/01/25 01:05:11;;;;;;;4.40;3.87;;;2.00;99.90;;;;;;5039199;28;20308;-77
2021/01/25 01:07:38;;;;;;;4.77;3.83;;;2.00;99.90;;;;;;5030513;28;20225;-77
2021/01/25 01:10:05;;;;;;;6.60;4.20;;;2.00;99.90;;;;;;5013881;28;20205;-75
2021/01/25 01:12:32;;;;;;;6.43;4.00;;;1.90;99.90;;;;;;5039208;28;20293;-76
2021/01/25 01:14:58;;;;;;;5.20;3.60;;;1.90;99.90;;;;;;5042553;28;20258;-76
2021/01/25 01:17:25;;;;;;;6.33;3.57;;;2.00;99.90;;;;;;5021338;28;20268;-76
2021/01/25 01:19:52;;;;;;;5.43;3.83;;;2.10;99.90;;;;;;5019243;28;20227;-75
2021/01/25 01:22:18;;;;;;;5.23;3.80;;;2.00;99.90;;;;;;5025059;28;20215;-74
2021/01/25 01:24:44;;;;;;;9.90;4.20;;;1.90;99.90;;;;;;5040962;28;21219;-76
2021/01/25 01:27:11;;;;;;;7.93;4.33;;;2.00;99.90;;;;;;5042913;28;20301;-76
2021/01/25 01:29:37;;;;;;;4.87;3.87;;;1.90;99.90;;;;;;5043010;28;20622;-76
2021/01/25 01:32:03;;;;;;;9.20;5.10;;;2.00;99.90;;;;;;5037060;28;20626;-76
2021/01/25 01:34:30;;;;;;;10.73;5.37;;;1.90;99.90;;;;;;5027502;28;20237;-77
2021/01/25 01:36:56;;;;;;;8.63;4.50;;;1.90;99.90;;;;;;5044920;28;20358;-76
2021/01/25 01:39:23;;;;;;;6.07;4.57;;;1.90;99.90;;;;;;5025265;28;20207;-77
2021/01/25 01:41:49;;;;;;;6.57;5.10;;;1.90;99.90;;;;;;5028579;28;20216;-77
2021/01/25 01:44:15;;;;;;;6.00;4.23;;;2.00;99.90;;;;;;5034320;28;20203;-76
2021/01/25 01:46:43;;;;;;;6.60;4.77;;;2.00;99.90;;;;;;5036480;28;20683;-76
2021/01/25 01:49:11;;;;;;;6.97;5.20;;;2.00;99.90;;;;;;5012831;28;21440;-76
2021/01/25 01:51:38;;;;;;;8.63;5.10;;;2.00;99.90;;;;;;5021151;28;20792;-77
2021/01/25 01:54:05;;;;;;;8.97;5.20;;;2.00;99.90;;;;;;5026658;28;20210;-77
2021/01/25 01:56:33;;;;;;;9.17;5.47;;;2.20;99.90;;;;;;5016005;28;20310;-77
2021/01/25 01:59:00;;;;;;;11.27;6.73;;;2.10;99.90;;;;;;5014933;28;20227;-75
2021/01/25 02:01:26;;;;;;;9.97;7.00;;;2.10;99.90;;;;;;5021269;28;20225;-76
2021/01/25 02:03:53;;;;;;;10.00;6.53;;;2.10;99.90;;;;;;5033533;28;20570;-75
2021/01/25 02:06:21;;;;;;;17.73;8.13;;;2.30;99.90;;;;;;5033614;28;20239;-75
2021/01/25 02:08:49;;;;;;;11.40;7.23;;;2.20;99.90;;;;;;5020540;28;20281;-76
2021/01/25 02:11:17;;;;;;;14.47;8.53;;;2.20;99.90;;;;;;5031075;28;20524;-76
2021/01/25 02:13:44;;;;;;;11.00;7.93;;;2.20;99.90;;;;;;5036310;28;20295;-74
2021/01/25 02:16:10;;;;;;;14.70;9.07;;;2.10;99.90;;;;;;5019174;28;20226;-75
2021/01/25 02:18:37;;;;;;;12.57;8.53;;;2.20;99.90;;;;;;5039367;28;20210;-74
2021/01/25 02:21:06;;;;;;;12.70;8.50;;;2.10;99.90;;;;;;5039159;28;20227;-75
2021/01/25 02:24:03;;;;;;;15.23;8.77;;;2.10;99.90;;;;;;5041219;28;20644;-74
2021/01/25 02:26:53;;;;;;;16.73;8.97;;;2.10;99.90;;;;;;5030525;28;20226;-75
2021/01/25 02:29:20;;;;;;;16.37;8.83;;;2.20;99.90;;;;;;5054550;28;20203;-75
2021/01/25 02:31:48;;;;;;;16.53;9.63;;;2.00;99.90;;;;;;5038890;28;20507;-75
2021/01/25 02:34:15;;;;;;;14.77;8.97;;;2.00;99.90;;;;;;5033655;28;20206;-78
2021/01/25 02:36:45;;;;;;;14.03;9.13;;;2.10;99.90;;;;;;5031303;28;20240;-75
2021/01/25 02:39:12;;;;;;;16.43;10.27;;;2.10;99.90;;;;;;5040463;28;20226;-74
2021/01/25 02:41:40;;;;;;;15.03;9.70;;;2.00;99.90;;;;;;5038470;28;21924;-76
2021/01/25 02:44:09;;;;;;;22.77;10.23;;;2.10;99.90;;;;;;5040734;28;20244;-76
2021/01/25 02:46:36;;;;;;;16.90;9.27;;;2.10;99.90;;;;;;5054664;28;20232;-75
2021/01/25 02:49:03;;;;;;;18.07;10.70;;;2.10;99.90;;;;;;5026515;28;20254;-75
2021/01/25 02:51:30;;;;;;;18.17;10.17;;;2.00;99.90;;;;;;5035589;28;20240;-75
2021/01/25 02:53:56;;;;;;;16.17;10.43;;;2.20;99.90;;;;;;5033818;28;20198;-76
2021/01/25 02:56:23;;;;;;;18.33;11.03;;;2.20;99.90;;;;;;5036365;28;20238;-76
2021/01/25 02:58:50;;;;;;;15.80;10.60;;;2.30;99.90;;;;;;5033531;28;20194;-75
2021/01/25 03:01:16;;;;;;;18.30;10.67;;;2.30;99.90;;;;;;5032173;28;20214;-75
2021/01/25 03:03:45;;;;;;;17.50;10.13;;;2.40;99.90;;;;;;5032844;28;20204;-75
2021/01/25 03:06:11;;;;;;;16.00;10.40;;;2.50;99.90;;;;;;5040106;28;20584;-75
2021/01/25 03:08:38;;;;;;;17.70;10.87;;;2.50;99.90;;;;;;5044502;28;20198;-75
2021/01/25 03:11:05;;;;;;;19.07;11.40;;;2.60;99.90;;;;;;5016714;28;20670;-74
2021/01/25 03:13:31;;;;;;;15.83;9.90;;;2.60;99.90;;;;;;5039946;28;20211;-76
2021/01/25 03:15:58;;;;;;;17.87;11.43;;;2.70;99.90;;;;;;5031204;28;20286;-74
2021/01/25 03:18:26;;;;;;;15.73;10.50;;;2.70;99.90;;;;;;5030981;28;20306;-75
2021/01/25 03:20:54;;;;;;;18.20;10.90;;;2.70;99.90;;;;;;5035716;28;20223;-76
2021/01/25 03:23:21;;;;;;;18.90;10.50;;;2.70;99.90;;;;;;5041695;28;20302;-76
2021/01/25 03:25:47;;;;;;;16.70;10.53;;;2.70;99.90;;;;;;5024563;28;20215;-75
2021/01/25 03:28:14;;;;;;;17.83;11.20;;;2.70;99.90;;;;;;5034301;28;20587;-76
2021/01/25 03:30:41;;;;;;;17.93;11.37;;;2.50;99.90;;;;;;5031583;28;20207;-75
2021/01/25 03:33:07;;;;;;;18.13;10.90;;;2.70;99.90;;;;;;5023865;28;20203;-76
2021/01/25 03:35:35;;;;;;;17.67;11.23;;;2.70;99.90;;;;;;5036882;28;20197;-76
2021/01/25 03:38:01;;;;;;;18.97;11.30;;;2.70;99.90;;;;;;5025845;28;20309;-76
2021/01/25 03:40:28;;;;;;;17.33;11.60;;;2.80;99.90;;;;;;5031084;28;20626;-76
2021/01/25 03:42:54;;;;;;;19.47;12.17;;;2.70;99.90;;;;;;5038640;28;20295;-75
2021/01/25 03:45:20;;;;;;;19.13;10.83;;;2.70;99.90;;;;;;5041843;28;20516;-76
2021/01/25 03:47:47;;;;;;;19.50;12.77;;;2.80;99.90;;;;;;5019952;28;20666;-76
2021/01/25 03:50:15;;;;;;;17.17;11.17;;;2.70;99.90;;;;;;5029903;28;20543;-76
2021/01/25 03:52:41;;;;;;;17.43;10.80;;;2.60;99.90;;;;;;5036545;28;20230;-78
2021/01/25 03:55:10;;;;;;;16.57;10.77;;;2.60;99.90;;;;;;5012485;28;20288;-77
2021/01/25 03:57:36;;;;;;;17.73;9.87;;;2.70;99.90;;;;;;5025119;28;20897;-77
2021/01/25 04:00:07;;;;;;;16.03;10.90;;;2.80;99.90;;;;;;5042584;28;20219;-76
2021/01/25 04:02:34;;;;;;;16.27;11.60;;;2.80;99.90;;;;;;5037953;28;20199;-79
2021/01/25 04:05:01;;;;;;;16.80;10.87;;;2.80;99.90;;;;;;5018468;28;20211;-74
2021/01/25 04:07:27;;;;;;;17.07;10.80;;;2.80;99.90;;;;;;5024589;28;20295;-75
2021/01/25 04:09:53;;;;;;;18.43;10.47;;;2.80;99.90;;;;;;5034660;28;20889;-75
2021/01/25 04:12:20;;;;;;;14.97;10.23;;;2.80;99.90;;;;;;5024893;28;20643;-76
2021/01/25 04:14:46;;;;;;;20.00;12.30;;;2.80;99.90;;;;;;5029652;28;20210;-77
2021/01/25 04:17:12;;;;;;;15.60;10.57;;;2.80;99.90;;;;;;5059221;28;20211;-76
2021/01/25 04:19:39;;;;;;;15.30;9.80;;;2.80;99.90;;;;;;5020705;28;20668;-75
2021/01/25 04:22:05;;;;;;;15.87;10.13;;;2.70;99.90;;;;;;5008335;28;20203;-77
2021/01/25 04:24:31;;;;;;;15.83;10.47;;;2.80;99.90;;;;;;5020230;28;20647;-77
2021/01/25 04:26:58;;;;;;;16.70;10.77;;;2.60;99.90;;;;;;5045410;28;20641;-76
2021/01/25 04:29:24;;;;;;;17.03;10.43;;;2.70;99.90;;;;;;5025519;28;20530;-77
2021/01/25 04:31:50;;;;;;;13.93;9.80;;;2.70;99.90;;;;;;5028208;28;20667;-76
2021/01/25 04:34:18;;;;;;;16.77;11.20;;;2.60;99.90;;;;;;5022933;28;20227;-76
2021/01/25 04:36:45;;;;;;;17.20;11.50;;;2.60;99.90;;;;;;5034166;28;20285;-77
2021/01/25 04:39:11;;;;;;;18.87;11.27;;;2.80;99.90;;;;;;5027372;28;20208;-78
2021/01/25 04:41:39;;;;;;;13.90;10.23;;;2.70;99.90;;;;;;5021949;28;20601;-77
2021/01/25 04:44:06;;;;;;;20.37;10.80;;;2.70;99.90;;;;;;5033167;28;20238;-76
2021/01/25 04:46:33;;;;;;;17.73;10.13;;;2.80;99.90;;;;;;5036352;28;20257;-76
2021/01/25 04:49:00;;;;;;;14.80;10.13;;;2.70;99.90;;;;;;5024386;28;20269;-77
2021/01/25 04:51:27;;;;;;;14.03;9.70;;;2.70;99.90;;;;;;5036123;28;20256;-76
2021/01/25 04:53:54;;;;;;;15.63;10.63;;;2.60;99.90;;;;;;5040665;28;20778;-74
2021/01/25 04:56:21;;;;;;;16.33;10.70;;;2.60;99.90;;;;;;5027530;28;20306;-75
2021/01/25 04:58:49;;;;;;;18.00;10.47;;;2.60;99.90;;;;;;5037185;28;20246;-76
2021/01/25 05:01:15;;;;;;;16.10;9.90;;;2.60;99.90;;;;;;5036370;28;20239;-76
2021/01/25 05:03:42;;;;;;;19.00;10.97;;;2.70;99.90;;;;;;5037737;28;20302;-76
2021/01/25 05:06:08;;;;;;;17.97;10.03;;;2.70;99.90;;;;;;5037687;28;20205;-76
2021/01/25 05:08:34;;;;;;;15.83;9.47;;;2.70;99.90;;;;;;5022982;28;20346;-76
2021/01/25 05:11:14;;;;;;;15.77;10.20;;;2.70;99.90;;;;;;5024547;28;20231;-76
2021/01/25 05:13:41;;;;;;;14.17;9.83;;;2.60;99.90;;;;;;5037982;28;20213;-75
2021/01/25 05:16:18;;;;;;;17.87;10.40;;;2.50;99.90;;;;;;5055380;28;20591;-76
2021/01/25 05:18:53;;;;;;;20.00;10.33;;;2.70;99.90;;;;;;5037471;28;20269;-75
2021/01/25 05:21:30;;;;;;;14.53;9.63;;;2.60;99.90;;;;;;5033629;28;20226;-74
2021/01/25 05:24:06;;;;;;;13.77;9.20;;;2.60;99.90;;;;;;5034138;28;20259;-77
2021/01/25 05:26:36;;;;;;;13.03;8.97;;;2.50;99.90;;;;;;5036109;28;20273;-75
2021/01/25 05:29:03;;;;;;;17.70;9.43;;;2.50;99.90;;;;;;5038128;28;20203;-77
2021/01/25 05:31:30;;;;;;;15.63;10.03;;;2.60;99.90;;;;;;5038883;28;20288;-76
2021/01/25 05:33:56;;;;;;;15.50;9.13;;;2.60;99.90;;;;;;5035900;28;20199;-74
2021/01/25 05:36:29;;;;;;;14.10;9.47;;;2.60;99.90;;;;;;5036777;28;20311;-76
2021/01/25 05:38:56;;;;;;;15.47;9.53;;;2.50;99.90;;;;;;5023062;28;20293;-75
2021/01/25 05:41:22;;;;;;;17.00;10.40;;;2.50;99.90;;;;;;5023663;28;20219;-76
2021/01/25 05:43:50;;;;;;;18.80;11.20;;;2.60;99.90;;;;;;5038001;28;20202;-76
2021/01/25 05:46:19;;;;;;;19.00;11.30;;;2.60;99.90;;;;;;5027189;28;20228;-76
2021/01/25 05:48:59;;;;;;;19.20;10.80;;;2.50;99.90;;;;;;5035089;28;20208;-75
2021/01/25 05:51:32;;;;;;;16.60;10.30;;;2.50;99.90;;;;;;5018855;28;20231;-75
2021/01/25 05:54:01;;;;;;;16.20;9.90;;;2.60;99.90;;;;;;5045905;28;20303;-74
2021/01/25 05:56:29;;;;;;;19.43;11.50;;;2.60;99.90;;;;;;5022863;28;20214;-76
2021/01/25 05:58:56;;;;;;;17.93;12.07;;;2.70;99.90;;;;;;5042782;28;20209;-74
2021/01/25 06:01:23;;;;;;;21.50;11.77;;;2.60;99.90;;;;;;5041315;28;21861;-75
2021/01/25 06:03:50;;;;;;;17.63;11.87;;;2.50;99.90;;;;;;5035549;28;20533;-75
2021/01/25 06:06:30;;;;;;;18.07;11.17;;;2.40;99.90;;;;;;5041101;28;20602;-78
2021/01/25 06:09:03;;;;;;;19.63;11.43;;;2.50;99.90;;;;;;5033280;28;20613;-77
2021/01/25 06:11:33;;;;;;;19.07;11.77;;;2.50;99.90;;;;;;5035336;28;20642;-77
2021/01/25 06:14:12;;;;;;;16.57;9.87;;;2.60;99.90;;;;;;5043494;28;20618;-76
2021/01/25 06:16:39;;;;;;;16.07;10.43;;;2.40;99.90;;;;;;5040716;28;20294;-77
2021/01/25 06:19:09;;;;;;;13.77;9.37;;;2.40;99.90;;;;;;5018882;28;20308;-76
2021/01/25 06:21:40;;;;;;;18.67;11.50;;;2.40;99.90;;;;;;5038179;28;22151;-77
2021/01/25 06:24:11;;;;;;;16.30;10.60;;;2.50;99.90;;;;;;5040013;28;20198;-78
2021/01/25 06:26:39;;;;;;;17.13;10.63;;;2.50;99.90;;;;;;5036712;28;20205;-80
2021/01/25 06:29:07;;;;;;;17.27;11.03;;;2.50;99.90;;;;;;5033698;28;20235;-88
2021/01/25 06:31:39;;;;;;;15.30;10.40;;;2.50;99.90;;;;;;5022552;28;20212;-79
2021/01/25 06:34:09;;;;;;;20.23;9.57;;;2.40;99.90;;;;;;5027419;28;20295;-80
2021/01/25 06:36:39;;;;;;;16.00;10.40;;;2.60;99.90;;;;;;5039908;28;20669;-80
2021/01/25 06:39:07;;;;;;;17.13;9.70;;;2.60;99.90;;;;;;5025432;28;20253;-78
2021/01/25 06:41:42;;;;;;;18.83;10.67;;;2.50;99.90;;;;;;5042228;28;20744;-78
2021/01/25 06:44:10;;;;;;;13.50;9.07;;;2.50;99.90;;;;;;5035062;28;20788;-76
2021/01/25 06:46:38;;;;;;;15.17;10.40;;;2.50;99.90;;;;;;5051403;28;20295;-78
2021/01/25 06:49:06;;;;;;;15.10;10.23;;;2.50;99.90;;;;;;5022391;28;20197;-77
2021/01/25 06:51:46;;;;;;;18.67;9.80;;;2.60;99.90;;;;;;5039011;28;20324;-76
2021/01/25 06:54:13;;;;;;;15.93;10.07;;;2.50;99.90;;;;;;5037578;28;20231;-78
2021/01/25 06:56:44;;;;;;;16.40;9.30;;;2.60;99.90;;;;;;5049613;28;20294;-74
2021/01/25 06:59:11;;;;;;;16.00;10.37;;;2.60;99.90;;;;;;5037974;28;20203;-76
2021/01/25 07:01:41;;;;;;;15.57;10.33;;;2.60;99.90;;;;;;5031373;28;20269;-74
2021/01/25 07:04:13;;;;;;;16.17;9.73;;;2.50;99.90;;;;;;5022459;28;20202;-75
2021/01/25 07:06:44;;;;;;;15.63;9.00;;;2.60;99.90;;;;;;5023178;28;20208;-75
2021/01/25 07:09:11;;;;;;;21.33;10.37;;;2.60;99.90;;;;;;5020706;28;20215;-76
2021/01/25 07:11:39;;;;;;;18.00;9.53;;;2.70;99.90;;;;;;5008848;28;20234;-76
2021/01/25 07:14:05;;;;;;;17.63;9.87;;;2.60;99.90;;;;;;5040187;28;20228;-76
2021/01/25 07:16:34;;;;;;;14.30;9.23;;;2.60;99.90;;;;;;5045113;28;20195;-76
2021/01/25 07:19:01;;;;;;;13.63;9.17;;;2.60;99.90;;;;;;5041872;28;20261;-77
2021/01/25 07:21:29;;;;;;;15.93;9.90;;;2.70;99.90;;;;;;5023723;28;20227;-76
2021/01/25 07:23:59;;;;;;;17.07;9.07;;;2.70;99.90;;;;;;5027157;28;20212;-76
2021/01/25 07:26:27;;;;;;;15.07;9.90;;;2.70;99.90;;;;;;5036030;28;20215;-76
2021/01/25 07:28:53;;;;;;;14.53;9.73;;;2.60;99.90;;;;;;5040484;28;20265;-75
2021/01/25 07:31:20;;;;;;;18.33;10.83;;;2.70;99.90;;;;;;5054072;28;20203;-76
2021/01/25 07:33:46;;;;;;;15.20;9.33;;;2.60;99.90;;;;;;5018659;28;20203;-77
2021/01/25 07:36:12;;;;;;;15.63;10.17;;;2.60;99.90;;;;;;5041309;28;20725;-79
2021/01/25 07:38:39;;;;;;;15.20;10.13;;;2.60;99.90;;;;;;5042245;28;20280;-79
2021/01/25 07:41:06;;;;;;;16.57;10.47;;;2.40;99.90;;;;;;5023695;28;20319;-76
2021/01/25 07:43:32;;;;;;;14.23;9.60;;;2.40;99.90;;;;;;5039265;28;20230;-77
2021/01/25 07:46:06;;;;;;;13.97;9.73;;;2.50;99.90;;;;;;5010097;28;20256;-73
2021/01/25 07:48:34;;;;;;;19.80;10.73;;;2.50;99.90;;;;;;5044893;28;20257;-76
2021/01/25 07:51:00;;;;;;;18.40;12.00;;;2.40;99.90;;;;;;5034583;28;20288;-77
2021/01/25 07:53:34;;;;;;;20.30;11.00;;;2.40;99.90;;;;;;5030239;28;20626;-75
2021/01/25 07:56:00;;;;;;;14.67;10.03;;;2.40;99.90;;;;;;5053723;28;20659;-78
2021/01/25 07:58:27;;;;;;;17.97;11.90;;;2.40;99.90;;;;;;5047099;28;20207;-77
2021/01/25 08:00:53;;;;;;;17.90;10.97;;;2.50;99.90;;;;;;5013307;28;20220;-76
2021/01/25 08:03:19;;;;;;;15.80;10.27;;;2.60;99.90;;;;;;5023804;28;20206;-75
2021/01/25 08:05:49;;;;;;;20.10;11.20;;;2.40;99.90;;;;;;5039325;28;20202;-75
2021/01/25 08:08:17;;;;;;;19.80;11.53;;;2.30;99.90;;;;;;5033699;28;20200;-76
2021/01/25 08:10:45;;;;;;;16.30;11.13;;;2.30;99.90;;;;;;5035743;28;20231;-75
2021/01/25 08:13:17;;;;;;;16.70;11.27;;;2.40;99.90;;;;;;5033770;28;20203;-76
2021/01/25 08:15:53;;;;;;;18.60;12.60;;;2.50;99.90;;;;;;5035638;28;20199;-75
2021/01/25 08:18:25;;;;;;;22.63;14.80;;;2.60;99.90;;;;;;5037220;28;21027;-75
2021/01/25 08:20:56;;;;;;;18.60;12.10;;;2.50;99.90;;;;;;5037623;28;20236;-75
2021/01/25 08:23:25;;;;;;;17.70;11.03;;;2.70;99.90;;;;;;5039500;28;20204;-77
2021/01/25 08:26:00;;;;;;;18.10;11.30;;;2.60;99.90;;;;;;5057089;28;20215;-78
2021/01/25 08:28:33;;;;;;;17.00;11.40;;;2.70;99.90;;;;;;5043219;28;20218;-80
2021/01/25 08:31:09;;;;;;;15.07;10.67;;;2.80;99.90;;;;;;5037255;28;20208;-80
2021/01/25 08:33:38;;;;;;;18.90;11.67;;;2.80;99.90;;;;;;5043277;28;20283;-78
2021/01/25 08:36:26;;;;;;;17.30;10.83;;;2.90;99.90;;;;;;5033750;28;20612;-76
2021/01/25 08:38:52;;;;;;;21.53;11.40;;;3.10;99.90;;;;;;5040709;28;20265;-75
2021/01/25 08:41:28;;;;;;;19.63;12.13;;;3.40;99.90;;;;;;5025352;28;20219;-76
2021/01/25 08:43:58;;;;;;;17.47;12.00;;;3.40;99.90;;;;;;5035697;28;20471;-79
2021/01/25 08:46:32;;;;;;;18.37;11.73;;;3.70;99.90;;;;;;5025438;28;20274;-77
2021/01/25 08:49:32;;;;;;;20.13;12.20;;;3.80;99.90;;;;;;5052658;28;20574;-78
2021/01/25 08:52:07;;;;;;;20.23;12.43;;;4.00;99.90;;;;;;5041606;28;20387;-76
2021/01/25 08:54:40;;;;;;;18.30;10.53;;;4.20;99.90;;;;;;5036996;28;20639;-79
2021/01/25 08:57:23;;;;;;;17.03;10.83;;;4.20;99.90;;;;;;5038613;28;20196;-78
2021/01/25 08:59:49;;;;;;;15.87;10.40;;;4.20;99.90;;;;;;5054563;28;20266;-76
2021/01/25 09:02:22;;;;;;;16.77;11.40;;;3.90;99.90;;;;;;5035681;28;20206;-76
2021/01/25 09:04:51;;;;;;;16.27;11.27;;;4.00;99.90;;;;;;5040107;28;20690;-77
2021/01/25 09:07:19;;;;;;;16.50;11.90;;;4.00;99.90;;;;;;5041050;28;20623;-78
2021/01/25 09:09:47;;;;;;;14.50;10.97;;;4.50;99.90;;;;;;5039684;28;20204;-78
2021/01/25 09:12:15;;;;;;;16.00;10.63;;;4.70;99.90;;;;;;5027561;28;20266;-78
2021/01/25 09:14:42;;;;;;;17.17;11.30;;;4.60;99.90;;;;;;5043868;28;20204;-77
2021/01/25 09:17:09;;;;;;;19.20;11.97;;;4.70;99.90;;;;;;5023188;28;20200;-77
2021/01/25 09:19:37;;;;;;;16.33;11.00;;;5.00;99.90;;;;;;5037248;28;20232;-76
2021/01/25 09:22:05;;;;;;;17.70;10.57;;;4.50;99.90;;;;;;5041167;28;20294;-79
2021/01/25 09:24:31;;;;;;;19.30;10.90;;;4.80;99.90;;;;;;5030391;28;20196;-81
2021/01/25 09:26:57;;;;;;;18.50;10.83;;;4.90;99.90;;;;;;5028064;28;20230;-75
2021/01/25 09:29:24;;;;;;;14.03;9.90;;;5.10;99.90;;;;;;5024768;28;20266;-79
2021/01/25 09:31:50;;;;;;;16.27;10.00;;;5.50;99.90;;;;;;5036251;28;20281;-77
2021/01/25 09:34:17;;;;;;;15.83;10.30;;;5.90;99.90;;;;;;5018749;28;20241;-77
2021/01/25 09:36:44;;;;;;;14.27;9.67;;;6.10;99.90;;;;;;5014469;28;20550;-76
2021/01/25 09:39:13;;;;;;;15.97;10.30;;;6.80;99.90;;;;;;5031660;28;20207;-79
2021/01/25 09:41:41;;;;;;;12.73;9.00;;;6.80;99.90;;;;;;5045053;28;20328;-77
2021/01/25 09:44:07;;;;;;;16.03;9.37;;;7.00;99.90;;;;;;5013378;28;20192;-77
2021/01/25 09:46:34;;;;;;;11.03;9.03;;;7.90;99.90;;;;;;5008749;28;20673;-79
2021/01/25 09:49:00;;;;;;;17.03;10.07;;;8.10;99.90;;;;;;5035516;28;20207;-78
2021/01/25 09:51:27;;;;;;;14.03;9.47;;;8.40;99.90;;;;;;5040767;28;20246;-79
2021/01/25 09:53:53;;;;;;;14.33;9.50;;;8.50;99.90;;;;;;5041842;28;20196;-78
2021/01/25 09:56:19;;;;;;;14.23;10.10;;;8.00;99.90;;;;;;5039846;28;20201;-80
2021/01/25 09:58:46;;;;;;;16.83;10.60;;;8.50;99.90;;;;;;5035621;28;20317;-79
2021/01/25 10:01:12;;;;;;;15.13;11.00;;;7.30;99.90;;;;;;5017547;28;20228;-79
2021/01/25 10:03:39;;;;;;;13.37;9.97;;;7.60;99.90;;;;;;5040001;28;20200;-81
2021/01/25 10:06:07;;;;;;;13.63;10.47;;;8.40;99.90;;;;;;5034064;28;20676;-80
2021/01/25 10:08:36;;;;;;;18.17;10.40;;;8.70;99.90;;;;;;5012719;28;20217;-80
2021/01/25 10:11:04;;;;;;;14.30;9.73;;;9.00;99.90;;;;;;5026116;28;20364;-81
2021/01/25 10:13:31;;;;;;;15.47;10.97;;;8.20;99.90;;;;;;5027858;28;20656;-75
2021/01/25 10:15:57;;;;;;;14.13;10.13;;;8.10;99.90;;;;;;5045894;28;20303;-81
2021/01/25 10:18:24;;;;;;;13.37;9.77;;;8.20;99.90;;;;;;5027056;28;20597;-81
2021/01/25 10:20:50;;;;;;;13.40;9.07;;;8.40;99.90;;;;;;5025652;28;20291;-80
2021/01/25 10:23:17;;;;;;;11.73;9.27;;;8.80;99.90;;;;;;5002557;28;20219;-77
2021/01/25 10:25:44;;;;;;;10.67;7.77;;;8.60;99.90;;;;;;5042315;28;20207;-80
2021/01/25 10:28:11;;;;;;;11.73;7.77;;;8.90;99.90;;;;;;5028092;28;20531;-77
2021/01/25 10:30:37;;;;;;;11.13;8.30;;;8.80;99.90;;;;;;5042389;28;20199;-79
2021/01/25 10:33:04;;;;;;;13.20;9.40;;;8.80;99.90;;;;;;5023421;28;20625;-77
2021/01/25 10:35:30;;;;;;;10.63;8.07;;;8.90;99.90;;;;;;5011256;28;20933;-78
2021/01/25 10:37:58;;;;;;;13.37;8.33;;;9.40;99.90;;;;;;5038808;28;20316;-77
2021/01/25 10:40:25;;;;;;;10.93;7.33;;;9.20;99.90;;;;;;5007573;28;20219;-78
2021/01/25 10:42:51;;;;;;;9.93;7.63;;;9.10;99.90;;;;;;5011205;28;20552;-78
2021/01/25 10:45:18;;;;;;;12.07;8.47;;;9.10;99.90;;;;;;5042107;28;20239;-78
2021/01/25 10:47:44;;;;;;;12.07;8.40;;;8.50;99.90;;;;;;5029096;28;21059;-77
2021/01/25 10:50:11;;;;;;;11.87;8.13;;;8.40;1.00;;;;;;5038750;28;20578;-76
2021/01/25 10:52:43;;;;;;;10.90;7.83;;;8.10;99.90;;;;;;5040527;28;20503;-78
2021/01/25 10:55:10;;;;;;;14.70;8.90;;;8.70;99.90;;;;;;5036078;28;20208;-75
2021/01/25 10:57:39;;;;;;;10.90;8.57;;;8.90;1.00;;;;;;5021947;28;20298;-76
2021/01/25 11:00:12;;;;;;;11.97;8.20;;;8.90;93.80;;;;;;5036278;28;20321;-77
2021/01/25 11:02:39;;;;;;;10.53;8.00;;;8.20;99.90;;;;;;5038787;28;20667;-76
2021/01/25 11:05:09;;;;;;;13.43;8.47;;;8.10;99.90;;;;;;5033738;28;20900;-78
2021/01/25 11:07:37;;;;;;;12.70;8.03;;;7.70;99.90;;;;;;5033004;28;20206;-78
2021/01/25 11:10:09;;;;;;;10.40;7.03;;;7.40;1.00;;;;;;5047303;28;20187;-78
2021/01/25 11:12:35;;;;;;;12.67;7.40;;;8.10;1.00;;;;;;5039288;28;20701;-77
2021/01/25 11:15:03;;;;;;;14.17;8.30;;;8.60;41.90;;;;;;5014991;28;20337;-76
2021/01/25 11:17:30;;;;;;;8.90;5.80;;;8.50;99.90;;;;;;5030134;28;20304;-77
2021/01/25 11:19:57;;;;;;;10.47;7.93;;;8.40;1.00;;;;;;5031630;28;20211;-78
2021/01/25 11:22:23;;;;;;;11.93;8.40;;;8.70;99.90;;;;;;5034147;28;20204;-76
2021/01/25 11:24:50;;;;;;;10.83;7.47;;;8.80;99.90;;;;;;5025043;28;20262;-77
2021/01/25 11:27:18;;;;;;;9.40;6.63;;;9.10;99.90;;;;;;5009663;28;20201;-79
2021/01/25 11:29:44;;;;;;;10.40;7.73;;;9.60;1.00;;;;;;5020221;28;20549;-77
2021/01/25 11:32:11;;;;;;;9.90;7.40;;;9.00;1.00;;;;;;5037690;28;20262;-77
2021/01/25 11:34:38;;;;;;;10.83;6.70;;;8.70;1.00;;;;;;5024219;28;20215;-77
2021/01/25 11:37:05;;;;;;;10.10;7.07;;;9.20;1.00;;;;;;5015759;28;20216;-77
2021/01/25 11:39:33;;;;;;;9.00;5.93;;;9.80;99.90;;;;;;5022582;28;20513;-76
2021/01/25 11:42:00;;;;;;;7.13;4.90;;;9.40;1.00;;;;;;5023518;28;20226;-79
2021/01/25 11:44:27;;;;;;;6.43;5.33;;;10.20;1.00;;;;;;5022475;28;20236;-79
2021/01/25 11:46:54;;;;;;;8.75;6.18;;;10.90;1.00;;;;;;5025274;28;20455;-80
2021/01/25 11:49:21;;;;;;;9.40;5.97;;;10.60;51.40;;;;;;5014691;28;20231;-78
2021/01/25 11:51:48;;;;;;;5.53;4.53;;;10.80;99.90;;;;;;5034543;28;20318;-76
2021/01/25 11:54:14;;;;;;;8.13;5.97;;;10.80;99.90;;;;;;5030501;28;20202;-77
2021/01/25 11:56:41;;;;;;;6.57;4.60;;;10.80;99.90;;;;;;5030454;28;20583;-77
2021/01/25 11:59:08;;;;;;;4.93;3.53;;;11.00;99.90;;;;;;5036049;28;20266;-78
2021/01/25 12:01:36;;;;;;;5.40;3.83;;;11.00;99.90;;;;;;5035558;28;20369;-78
2021/01/25 12:04:04;;;;;;;5.00;3.30;;;10.80;1.00;;;;;;5038163;28;20287;-78
2021/01/25 12:06:30;;;;;;;6.23;3.60;;;11.00;99.90;;;;;;5055655;28;20224;-77
2021/01/25 12:08:57;;;;;;;5.77;3.40;;;11.10;99.90;;;;;;5020141;28;20292;-76
2021/01/25 12:11:23;;;;;;;4.73;3.40;;;11.20;99.90;;;;;;5022523;28;20644;-78
2021/01/25 12:13:50;;;;;;;5.53;3.43;;;11.10;1.00;;;;;;5021881;28;20805;-77
2021/01/25 12:16:16;;;;;;;5.23;3.53;;;10.80;1.00;;;;;;5023326;28;20233;-76
2021/01/25 12:18:44;;;;;;;4.80;3.33;;;10.30;99.90;;;;;;5037957;28;20220;-77
2021/01/25 12:21:11;;;;;;;5.87;3.03;;;10.60;99.90;;;;;;5026319;28;20912;-76
2021/01/25 12:23:38;;;;;;;5.77;4.23;;;10.40;99.90;;;;;;5023564;28;20206;-77
2021/01/25 12:26:05;;;;;;;6.67;3.87;;;10.10;1.00;;;;;;5024821;28;20284;-77
2021/01/25 12:28:31;;;;;;;9.70;5.00;;;9.90;99.90;;;;;;5043451;28;20206;-76
2021/01/25 12:31:01;;;;;;;8.73;5.17;;;9.90;26.50;;;;;;5019090;28;20222;-77
2021/01/25 12:33:27;;;;;;;5.20;3.83;;;10.10;99.90;;;;;;5032466;28;20295;-77
2021/01/25 12:35:54;;;;;;;6.13;4.20;;;10.40;1.00;;;;;;5055072;28;20258;-77
2021/01/25 12:38:20;;;;;;;5.50;4.07;;;9.80;1.00;;;;;;5012179;28;20213;-77
2021/01/25 12:40:47;;;;;;;6.47;4.50;;;9.30;1.00;;;;;;5023703;28;20608;-78
2021/01/25 12:43:13;;;;;;;6.37;4.13;;;8.30;1.00;;;;;;5042278;28;20312;-76
2021/01/25 12:45:39;;;;;;;6.00;4.43;;;8.70;1.00;;;;;;5037816;28;20730;-76
2021/01/25 12:48:06;;;;;;;7.00;4.43;;;9.00;99.90;;;;;;5052123;28;20203;-76
2021/01/25 12:50:32;;;;;;;5.63;4.30;;;8.90;99.90;;;;;;5042451;28;20220;-77